sensor_id;sensor_type;location;lat;lon;timestamp;pressure;altitude;pressure_sealevel;temperature;humidity
9009;BME280;62813;51.424;6.762;2022-12-11T00:00:44;100975.03;;;1.23;84.17
9009;BME280;62813;51.424;6.762;2022-12-11T00:03:11;100977.59;;;1.25;84.09
9009;BME280;62813;51.424;6.762;2022-12-11T00:05:42;100966.53;;;1.28;84.37
9009;BME280;62813;51.424;6.762;2022-12-11T00:08:09;100975.91;;;1.29;84.05
9009;BME280;62813;51.424;6.762;2022-12-11T00:10:36;100971.66;;;1.28;83.96
9009;BME280;62813;51.424;6.762;2022-12-11T00:13:04;100979.31;;;1.31;83.93
9009;BME280;62813;51.424;6.762;2022-12-11T00:15:30;100970.78;;;1.32;84.33
9009;BME280;62813;51.424;6.762;2022-12-11T00:17:57;100969.09;;;1.34;84.45
9009;BME280;62813;51.424;6.762;2022-12-11T00:20:23;100969.09;;;1.34;84.25
9009;BME280;62813;51.424;6.762;2022-12-11T00:22:50;100969.09;;;1.23;83.81
9009;BME280;62813;51.424;6.762;2022-12-11T00:25:16;100972.50;;;1.23;84.21
9009;BME280;62813;51.424;6.762;2022-12-11T00:27:44;100976.75;;;1.24;84.50
9009;BME280;62813;51.424;6.762;2022-12-11T00:30:12;100974.22;;;1.28;83.92
9009;BME280;62813;51.424;6.762;2022-12-11T00:32:39;100972.50;;;1.23;83.80
9009;BME280;62813;51.424;6.762;2022-12-11T00:35:06;100972.50;;;1.23;83.82
9009;BME280;62813;51.424;6.762;2022-12-11T00:37:33;100978.47;;;1.27;83.88
9009;BME280;62813;51.424;6.762;2022-12-11T00:39:59;100968.25;;;1.27;83.69
9009;BME280;62813;51.424;6.762;2022-12-11T00:42:26;100970.81;;;1.27;83.47
9009;BME280;62813;51.424;6.762;2022-12-11T00:44:52;100975.91;;;1.32;83.41
9009;BME280;62813;51.424;6.762;2022-12-11T00:47:20;100975.91;;;1.32;83.41
9009;BME280;62813;51.424;6.762;2022-12-11T00:49:46;100973.34;;;1.29;83.25
9009;BME280;62813;51.424;6.762;2022-12-11T00:52:15;100970.78;;;1.29;83.00
9009;BME280;62813;51.424;6.762;2022-12-11T00:54:43;100968.22;;;1.30;82.88
9009;BME280;62813;51.424;6.762;2022-12-11T00:57:10;100969.09;;;1.29;83.04
9009;BME280;62813;51.424;6.762;2022-12-11T00:59:37;100967.38;;;1.30;83.13
9009;BME280;62813;51.424;6.762;2022-12-11T01:02:03;100969.06;;;1.24;82.21
9009;BME280;62813;51.424;6.762;2022-12-11T01:04:30;100969.94;;;1.25;82.28
9009;BME280;62813;51.424;6.762;2022-12-11T01:06:57;100964.81;;;1.23;82.26
9009;BME280;62813;51.424;6.762;2022-12-11T01:09:23;100974.19;;;1.21;82.19
9009;BME280;62813;51.424;6.762;2022-12-11T01:12:08;100958.00;;;1.22;82.31
9009;BME280;62813;51.424;6.762;2022-12-11T01:14:35;100958.84;;;1.21;82.43
9009;BME280;62813;51.424;6.762;2022-12-11T01:17:01;100959.69;;;1.25;82.08
9009;BME280;62813;51.424;6.762;2022-12-11T01:19:28;100965.66;;;1.24;82.12
9009;BME280;62813;51.424;6.762;2022-12-11T01:21:55;100963.97;;;1.17;82.15
9009;BME280;62813;51.424;6.762;2022-12-11T01:24:22;100965.66;;;1.22;82.01
9009;BME280;62813;51.424;6.762;2022-12-11T01:26:48;100967.38;;;1.20;81.75
9009;BME280;62813;51.424;6.762;2022-12-11T01:29:14;100962.25;;;1.22;82.27
9009;BME280;62813;51.424;6.762;2022-12-11T01:31:41;100964.81;;;1.25;82.04
9009;BME280;62813;51.424;6.762;2022-12-11T01:34:08;100961.41;;;1.23;82.12
9009;BME280;62813;51.424;6.762;2022-12-11T01:36:34;100963.97;;;1.24;81.86
9009;BME280;62813;51.424;6.762;2022-12-11T01:39:01;100969.06;;;1.24;81.97
9009;BME280;62813;51.424;6.762;2022-12-11T01:41:27;100967.41;;;1.27;82.23
9009;BME280;62813;51.424;6.762;2022-12-11T01:46:25;100950.34;;;1.29;82.15
9009;BME280;62813;51.424;6.762;2022-12-11T01:48:53;100964.84;;;1.28;82.23
9009;BME280;62813;51.424;6.762;2022-12-11T01:51:21;100970.78;;;1.29;82.32
9009;BME280;62813;51.424;6.762;2022-12-11T01:53:53;100963.97;;;1.31;82.06
9009;BME280;62813;51.424;6.762;2022-12-11T01:56:21;100958.03;;;1.27;82.03
9009;BME280;62813;51.424;6.762;2022-12-11T01:58:52;100958.03;;;1.27;82.31
9009;BME280;62813;51.424;6.762;2022-12-11T02:01:30;100959.69;;;1.19;82.28
9009;BME280;62813;51.424;6.762;2022-12-11T02:06:40;100951.16;;;1.26;82.11
9009;BME280;62813;51.424;6.762;2022-12-11T02:09:12;100943.53;;;1.21;82.56
9009;BME280;62813;51.424;6.762;2022-12-11T02:14:35;100951.16;;;1.26;82.57
9009;BME280;62813;51.424;6.762;2022-12-11T02:17:13;100946.09;;;1.28;82.39
9009;BME280;62813;51.424;6.762;2022-12-11T02:31:03;100937.53;;;1.16;82.33
9009;BME280;62813;51.424;6.762;2022-12-11T02:33:37;100934.16;;;1.22;81.91
9009;BME280;62813;51.424;6.762;2022-12-11T02:36:10;100934.97;;;1.24;82.17
9009;BME280;62813;51.424;6.762;2022-12-11T02:38:40;100931.56;;;1.25;81.87
9009;BME280;62813;51.424;6.762;2022-12-11T02:41:10;100928.19;;;1.29;82.24
9009;BME280;62813;51.424;6.762;2022-12-11T02:43:37;100928.16;;;1.31;82.58
9009;BME280;62813;51.424;6.762;2022-12-11T02:46:06;100928.16;;;1.32;82.43
9009;BME280;62813;51.424;6.762;2022-12-11T02:48:35;100927.31;;;1.33;82.64
9009;BME280;62813;51.424;6.762;2022-12-11T02:51:04;100921.34;;;1.39;82.38
9009;BME280;62813;51.424;6.762;2022-12-11T02:53:34;100925.63;;;1.37;81.89
9009;BME280;62813;51.424;6.762;2022-12-11T02:56:23;100927.31;;;1.36;82.36
9009;BME280;62813;51.424;6.762;2022-12-11T02:58:56;100924.75;;;1.36;82.40
9009;BME280;62813;51.424;6.762;2022-12-11T03:01:25;100928.16;;;1.40;82.40
9009;BME280;62813;51.424;6.762;2022-12-11T03:03:53;100926.47;;;1.37;82.45
9009;BME280;62813;51.424;6.762;2022-12-11T03:06:23;100922.19;;;1.33;82.58
9009;BME280;62813;51.424;6.762;2022-12-11T03:08:51;100925.63;;;1.35;82.75
9009;BME280;62813;51.424;6.762;2022-12-11T03:11:18;100919.66;;;1.35;82.72
9009;BME280;62813;51.424;6.762;2022-12-11T03:13:44;100913.66;;;1.39;82.52
9009;BME280;62813;51.424;6.762;2022-12-11T03:16:33;100909.44;;;1.29;82.75
9009;BME280;62813;51.424;6.762;2022-12-11T03:22:01;100913.66;;;1.33;82.94
9009;BME280;62813;51.424;6.762;2022-12-11T03:24:49;100909.44;;;1.22;83.20
9009;BME280;62813;51.424;6.762;2022-12-11T03:30:16;100916.25;;;1.30;83.05
9009;BME280;62813;51.424;6.762;2022-12-11T03:33:03;100918.78;;;1.31;83.17
9009;BME280;62813;51.424;6.762;2022-12-11T03:35:35;100916.25;;;1.36;83.49
9009;BME280;62813;51.424;6.762;2022-12-11T03:38:07;100919.63;;;1.38;83.32
9009;BME280;62813;51.424;6.762;2022-12-11T03:40:36;100917.94;;;1.37;83.15
9009;BME280;62813;51.424;6.762;2022-12-11T03:43:05;100918.78;;;1.37;83.28
9009;BME280;62813;51.424;6.762;2022-12-11T03:45:32;100917.09;;;1.44;83.05
9009;BME280;62813;51.424;6.762;2022-12-11T03:48:01;100917.06;;;1.45;83.03
9009;BME280;62813;51.424;6.762;2022-12-11T03:50:30;100914.53;;;1.44;83.11
9009;BME280;62813;51.424;6.762;2022-12-11T03:52:57;100912.81;;;1.46;83.32
9009;BME280;62813;51.424;6.762;2022-12-11T03:55:26;100909.41;;;1.50;82.82
9009;BME280;62813;51.424;6.762;2022-12-11T03:57:54;100914.53;;;1.50;83.65
9009;BME280;62813;51.424;6.762;2022-12-11T04:00:21;100910.25;;;1.47;83.19
9009;BME280;62813;51.424;6.762;2022-12-11T04:02:48;100918.78;;;1.45;83.22
9009;BME280;62813;51.424;6.762;2022-12-11T04:05:52;100917.94;;;1.37;83.19
9009;BME280;62813;51.424;6.762;2022-12-11T04:08:20;100916.25;;;1.42;83.17
9009;BME280;62813;51.424;6.762;2022-12-11T04:10:48;100911.13;;;1.23;83.58
9009;BME280;62813;51.424;6.762;2022-12-11T04:13:35;100906.84;;;1.24;83.49
9009;BME280;62813;51.424;6.762;2022-12-11T04:16:01;100904.31;;;1.22;83.23
9009;BME280;62813;51.424;6.762;2022-12-11T04:18:28;100895.81;;;1.20;83.44
9009;BME280;62813;51.424;6.762;2022-12-11T04:21:13;100896.63;;;1.16;83.79
9009;BME280;62813;51.424;6.762;2022-12-11T04:24:04;100891.53;;;1.19;83.79
9009;BME280;62813;51.424;6.762;2022-12-11T04:26:43;100895.78;;;1.23;83.95
9009;BME280;62813;51.424;6.762;2022-12-11T04:29:10;100892.38;;;1.28;83.49
9009;BME280;62813;51.424;6.762;2022-12-11T04:31:37;100888.13;;;1.27;83.44
9009;BME280;62813;51.424;6.762;2022-12-11T04:34:03;100893.22;;;1.16;83.87
9009;BME280;62813;51.424;6.762;2022-12-11T04:36:30;100890.66;;;1.17;83.66
9009;BME280;62813;51.424;6.762;2022-12-11T04:38:57;100888.09;;;1.17;83.33
9009;BME280;62813;51.424;6.762;2022-12-11T04:41:23;100888.13;;;1.20;82.93
9009;BME280;62813;51.424;6.762;2022-12-11T04:43:50;100884.69;;;1.23;83.15
9009;BME280;62813;51.424;6.762;2022-12-11T04:46:21;100883.84;;;1.29;82.99
9009;BME280;62813;51.424;6.762;2022-12-11T04:48:48;100885.56;;;1.30;82.85
9009;BME280;62813;51.424;6.762;2022-12-11T04:51:22;100880.44;;;1.36;82.68
9009;BME280;62813;51.424;6.762;2022-12-11T04:53:49;100875.31;;;1.36;82.80
9009;BME280;62813;51.424;6.762;2022-12-11T04:56:15;100881.28;;;1.38;82.64
9009;BME280;62813;51.424;6.762;2022-12-11T04:58:43;100877.03;;;1.41;82.65
9009;BME280;62813;51.424;6.762;2022-12-11T05:01:12;100882.97;;;1.43;82.50
9009;BME280;62813;51.424;6.762;2022-12-11T05:03:39;100879.53;;;1.47;82.38
9009;BME280;62813;51.424;6.762;2022-12-11T05:06:07;100877.88;;;1.43;82.24
9009;BME280;62813;51.424;6.762;2022-12-11T05:08:35;100875.28;;;1.46;82.31
9009;BME280;62813;51.424;6.762;2022-12-11T05:11:05;100887.25;;;1.49;82.30
9009;BME280;62813;51.424;6.762;2022-12-11T05:13:32;100884.69;;;1.49;82.03
9009;BME280;62813;51.424;6.762;2022-12-11T05:15:59;100889.78;;;1.46;82.60
9009;BME280;62813;51.424;6.762;2022-12-11T05:18:28;100888.09;;;1.49;82.61
9009;BME280;62813;51.424;6.762;2022-12-11T05:20:56;100886.38;;;1.50;82.83
9009;BME280;62813;51.424;6.762;2022-12-11T05:23:24;100889.78;;;1.52;82.55
9009;BME280;62813;51.424;6.762;2022-12-11T05:25:56;100894.88;;;1.47;82.50
9009;BME280;62813;51.424;6.762;2022-12-11T05:28:24;100892.38;;;1.43;82.94
9009;BME280;62813;51.424;6.762;2022-12-11T05:31:17;100895.78;;;1.42;82.90
9009;BME280;62813;51.424;6.762;2022-12-11T05:33:46;100885.53;;;1.45;83.20
9009;BME280;62813;51.424;6.762;2022-12-11T05:36:18;100885.53;;;1.43;82.82
9009;BME280;62813;51.424;6.762;2022-12-11T05:38:46;100881.28;;;1.36;82.87
9009;BME280;62813;51.424;6.762;2022-12-11T05:41:15;100877.03;;;1.34;82.86
9009;BME280;62813;51.424;6.762;2022-12-11T05:43:42;100878.75;;;1.35;82.84
9009;BME280;62813;51.424;6.762;2022-12-11T05:46:18;100884.69;;;1.37;83.24
9009;BME280;62813;51.424;6.762;2022-12-11T05:48:47;100867.63;;;1.40;82.77
9009;BME280;62813;51.424;6.762;2022-12-11T05:51:15;100865.06;;;1.39;82.83
9009;BME280;62813;51.424;6.762;2022-12-11T05:53:43;100870.19;;;1.42;83.07
9009;BME280;62813;51.424;6.762;2022-12-11T05:56:22;100871.03;;;1.45;83.34
9009;BME280;62813;51.424;6.762;2022-12-11T05:58:49;100874.44;;;1.47;83.08
9009;BME280;62813;51.424;6.762;2022-12-11T06:01:51;100868.47;;;1.50;83.05
9009;BME280;62813;51.424;6.762;2022-12-11T06:04:12;100871.03;;;1.51;82.72
9009;BME280;62813;51.424;6.762;2022-12-11T06:06:39;100878.69;;;1.56;82.71
9009;BME280;62813;51.424;6.762;2022-12-11T06:09:06;100866.75;;;1.57;82.37
9009;BME280;62813;51.424;6.762;2022-12-11T06:11:33;100862.47;;;1.59;82.16
9009;BME280;62813;51.424;6.762;2022-12-11T06:14:01;100871.88;;;1.55;82.38
9009;BME280;62813;51.424;6.762;2022-12-11T06:16:28;100866.75;;;1.53;82.27
9009;BME280;62813;51.424;6.762;2022-12-11T06:18:54;100872.72;;;1.57;82.11
9009;BME280;62813;51.424;6.762;2022-12-11T06:21:28;100869.31;;;1.57;82.42
9009;BME280;62813;51.424;6.762;2022-12-11T06:23:56;100865.91;;;1.56;82.21
9009;BME280;62813;51.424;6.762;2022-12-11T06:26:24;100862.50;;;1.56;82.50
9009;BME280;62813;51.424;6.762;2022-12-11T06:28:51;100868.47;;;1.56;82.34
9009;BME280;62813;51.424;6.762;2022-12-11T06:31:18;100864.19;;;1.57;82.43
9009;BME280;62813;51.424;6.762;2022-12-11T06:33:45;100860.78;;;1.59;82.25
9009;BME280;62813;51.424;6.762;2022-12-11T06:36:15;100864.16;;;1.61;82.00
9009;BME280;62813;51.424;6.762;2022-12-11T06:38:42;100866.75;;;1.58;81.87
9009;BME280;62813;51.424;6.762;2022-12-11T06:41:09;100865.88;;;1.55;82.01
9009;BME280;62813;51.424;6.762;2022-12-11T06:43:37;100871.00;;;1.58;81.90
9009;BME280;62813;51.424;6.762;2022-12-11T06:46:13;100870.16;;;1.57;81.88
9009;BME280;62813;51.424;6.762;2022-12-11T06:48:41;100868.44;;;1.59;82.18
9009;BME280;62813;51.424;6.762;2022-12-11T06:51:12;100861.63;;;1.61;81.93
9009;BME280;62813;51.424;6.762;2022-12-11T06:53:39;100865.88;;;1.61;81.84
9009;BME280;62813;51.424;6.762;2022-12-11T06:56:15;100855.66;;;1.61;81.71
9009;BME280;62813;51.424;6.762;2022-12-11T06:58:42;100870.16;;;1.60;81.56
9009;BME280;62813;51.424;6.762;2022-12-11T07:01:23;100863.31;;;1.61;81.56
9009;BME280;62813;51.424;6.762;2022-12-11T07:03:57;100860.78;;;1.62;81.69
9009;BME280;62813;51.424;6.762;2022-12-11T07:06:28;100860.78;;;1.64;81.83
9009;BME280;62813;51.424;6.762;2022-12-11T07:08:55;100867.59;;;1.63;81.66
9009;BME280;62813;51.424;6.762;2022-12-11T07:11:22;100862.50;;;1.62;81.75
9009;BME280;62813;51.424;6.762;2022-12-11T07:13:49;100871.84;;;1.61;81.79
9009;BME280;62813;51.424;6.762;2022-12-11T07:16:16;100873.56;;;1.62;81.85
9009;BME280;62813;51.424;6.762;2022-12-11T07:18:47;100872.72;;;1.62;81.73
9009;BME280;62813;51.424;6.762;2022-12-11T07:21:14;100881.22;;;1.65;81.90
9009;BME280;62813;51.424;6.762;2022-12-11T07:23:41;100874.41;;;1.69;81.31
9009;BME280;62813;51.424;6.762;2022-12-11T07:26:12;100881.22;;;1.65;81.57
9009;BME280;62813;51.424;6.762;2022-12-11T07:28:39;100878.66;;;1.68;81.83
9009;BME280;62813;51.424;6.762;2022-12-11T07:31:18;100875.28;;;1.59;81.57
9009;BME280;62813;51.424;6.762;2022-12-11T07:33:45;100871.88;;;1.58;81.81
9009;BME280;62813;51.424;6.762;2022-12-11T07:36:13;100871.84;;;1.61;81.70
9009;BME280;62813;51.424;6.762;2022-12-11T07:38:42;100876.13;;;1.59;81.62
9009;BME280;62813;51.424;6.762;2022-12-11T07:41:10;100878.69;;;1.59;81.30
9009;BME280;62813;51.424;6.762;2022-12-11T07:43:37;100879.53;;;1.52;81.75
9009;BME280;62813;51.424;6.762;2022-12-11T07:46:06;100885.50;;;1.54;81.51
9009;BME280;62813;51.424;6.762;2022-12-11T07:48:34;100886.38;;;1.51;81.71
9009;BME280;62813;51.424;6.762;2022-12-11T07:53:34;100894.06;;;1.56;81.72
9009;BME280;62813;51.424;6.762;2022-12-11T07:56:01;100896.59;;;1.56;81.22
9009;BME280;62813;51.424;6.762;2022-12-11T07:58:28;100894.06;;;1.50;81.37
9009;BME280;62813;51.424;6.762;2022-12-11T08:00:54;100894.06;;;1.50;81.58
9009;BME280;62813;51.424;6.762;2022-12-11T08:03:21;100895.75;;;1.51;81.27
9009;BME280;62813;51.424;6.762;2022-12-11T08:05:49;100892.34;;;1.52;81.28
9009;BME280;62813;51.424;6.762;2022-12-11T08:08:17;100893.19;;;1.51;81.43
9009;BME280;62813;51.424;6.762;2022-12-11T08:10:44;100898.31;;;1.52;81.49
9009;BME280;62813;51.424;6.762;2022-12-11T08:13:14;100900.88;;;1.52;81.15
9009;BME280;62813;51.424;6.762;2022-12-11T08:15:40;100901.72;;;1.53;81.56
9009;BME280;62813;51.424;6.762;2022-12-11T08:18:07;100891.50;;;1.56;81.58
9009;BME280;62813;51.424;6.762;2022-12-11T08:20:36;100894.03;;;1.59;81.42
9009;BME280;62813;51.424;6.762;2022-12-11T08:23:04;100881.22;;;1.61;81.41
9009;BME280;62813;51.424;6.762;2022-12-11T08:25:30;100886.34;;;1.64;81.55
9009;BME280;62813;51.424;6.762;2022-12-11T08:27:57;100887.19;;;1.67;81.58
9009;BME280;62813;51.424;6.762;2022-12-11T08:30:23;100888.03;;;1.68;81.27
9009;BME280;62813;51.424;6.762;2022-12-11T08:32:50;100891.44;;;1.67;81.24
9009;BME280;62813;51.424;6.762;2022-12-11T08:35:16;100891.44;;;1.67;81.53
9009;BME280;62813;51.424;6.762;2022-12-11T08:37:43;100884.63;;;1.67;81.10
9009;BME280;62813;51.424;6.762;2022-12-11T08:40:10;100880.38;;;1.66;80.89
9009;BME280;62813;51.424;6.762;2022-12-11T08:42:37;100881.22;;;1.65;81.04
9009;BME280;62813;51.424;6.762;2022-12-11T08:45:04;100881.22;;;1.65;81.00
9009;BME280;62813;51.424;6.762;2022-12-11T08:47:31;100885.47;;;1.68;80.85
9009;BME280;62813;51.424;6.762;2022-12-11T08:49:58;100884.63;;;1.70;80.87
9009;BME280;62813;51.424;6.762;2022-12-11T08:52:24;100885.50;;;1.69;80.51
9009;BME280;62813;51.424;6.762;2022-12-11T08:54:51;100884.63;;;1.73;80.68
9009;BME280;62813;51.424;6.762;2022-12-11T08:57:18;100882.91;;;1.75;80.14
9009;BME280;62813;51.424;6.762;2022-12-11T08:59:44;100879.50;;;1.75;80.04
9009;BME280;62813;51.424;6.762;2022-12-11T09:02:11;100878.66;;;1.71;80.24
9009;BME280;62813;51.424;6.762;2022-12-11T09:04:41;100880.34;;;1.72;79.92
9009;BME280;62813;51.424;6.762;2022-12-11T09:07:07;100887.19;;;1.76;79.83
9009;BME280;62813;51.424;6.762;2022-12-11T09:09:34;100881.22;;;1.77;80.46
9009;BME280;62813;51.424;6.762;2022-12-11T09:12:00;100882.06;;;1.72;80.30
9009;BME280;62813;51.424;6.762;2022-12-11T09:14:27;100890.59;;;1.78;80.10
9009;BME280;62813;51.424;6.762;2022-12-11T09:16:53;100884.59;;;1.79;80.36
9009;BME280;62813;51.424;6.762;2022-12-11T09:19:20;100883.75;;;1.80;80.48
9009;BME280;62813;51.424;6.762;2022-12-11T09:21:47;100882.91;;;1.80;80.46
9009;BME280;62813;51.424;6.762;2022-12-11T09:24:14;100876.06;;;1.82;80.00
9009;BME280;62813;51.424;6.762;2022-12-11T09:26:41;100876.91;;;1.86;80.05
9009;BME280;62813;51.424;6.762;2022-12-11T09:29:09;100876.03;;;1.88;80.35
9009;BME280;62813;51.424;6.762;2022-12-11T09:31:36;100878.59;;;1.88;79.96
9009;BME280;62813;51.424;6.762;2022-12-11T09:34:09;100876.88;;;1.89;80.21
9009;BME280;62813;51.424;6.762;2022-12-11T09:36:38;100874.31;;;1.89;79.82
9009;BME280;62813;51.424;6.762;2022-12-11T09:39:06;100873.47;;;1.93;79.88
9009;BME280;62813;51.424;6.762;2022-12-11T09:41:37;100882.00;;;1.89;79.57
9009;BME280;62813;51.424;6.762;2022-12-11T09:46:40;100879.47;;;1.84;78.61
9009;BME280;62813;51.424;6.762;2022-12-11T09:49:27;100888.84;;;1.87;78.41
9009;BME280;62813;51.424;6.762;2022-12-11T09:54:26;100888.88;;;1.84;78.37
9009;BME280;62813;51.424;6.762;2022-12-11T09:59:39;100882.03;;;1.81;78.76
9009;BME280;62813;51.424;6.762;2022-12-11T10:02:30;100877.78;;;1.78;78.63
9009;BME280;62813;51.424;6.762;2022-12-11T10:10:44;100878.59;;;1.87;78.72
9009;BME280;62813;51.424;6.762;2022-12-11T10:13:33;100875.19;;;1.88;78.61
9009;BME280;62813;51.424;6.762;2022-12-11T10:16:18;100877.72;;;1.89;79.08
9009;BME280;62813;51.424;6.762;2022-12-11T10:18:50;100880.28;;;1.94;78.42
9009;BME280;62813;51.424;6.762;2022-12-11T10:21:17;100877.75;;;1.91;78.06
9009;BME280;62813;51.424;6.762;2022-12-11T10:23:57;100876.03;;;1.90;78.08
9009;BME280;62813;51.424;6.762;2022-12-11T10:26:27;100875.19;;;1.88;77.78
9009;BME280;62813;51.424;6.762;2022-12-11T10:28:58;100872.63;;;1.89;77.78
9009;BME280;62813;51.424;6.762;2022-12-11T10:31:31;100867.50;;;1.89;78.13
9009;BME280;62813;51.424;6.762;2022-12-11T10:34:10;100869.22;;;1.92;78.29
9009;BME280;62813;51.424;6.762;2022-12-11T10:36:40;100864.94;;;1.94;78.39
9009;BME280;62813;51.424;6.762;2022-12-11T10:39:15;100868.31;;;1.96;78.23
9009;BME280;62813;51.424;6.762;2022-12-11T10:41:45;100864.06;;;1.98;78.72
9009;BME280;62813;51.424;6.762;2022-12-11T10:46:43;100863.16;;;2.08;78.82
9009;BME280;62813;51.424;6.762;2022-12-11T10:49:55;100850.34;;;2.10;78.55
9009;BME280;62813;51.424;6.762;2022-12-11T10:52:26;100850.34;;;2.10;78.01
9009;BME280;62813;51.424;6.762;2022-12-11T10:54:58;100846.06;;;2.13;78.30
9009;BME280;62813;51.424;6.762;2022-12-11T10:57:31;100838.34;;;2.18;77.66
9009;BME280;62813;51.424;6.762;2022-12-11T10:59:59;100834.09;;;2.17;77.56
9009;BME280;62813;51.424;6.762;2022-12-11T11:02:30;100837.53;;;2.14;77.87
9009;BME280;62813;51.424;6.762;2022-12-11T11:04:59;100836.66;;;2.17;77.45
9009;BME280;62813;51.424;6.762;2022-12-11T11:07:30;100839.22;;;2.18;77.25
9009;BME280;62813;51.424;6.762;2022-12-11T11:10:17;100835.81;;;2.19;77.57
9009;BME280;62813;51.424;6.762;2022-12-11T11:12:48;100832.38;;;2.20;76.97
9009;BME280;62813;51.424;6.762;2022-12-11T11:15:24;100827.28;;;2.16;77.60
9009;BME280;62813;51.424;6.762;2022-12-11T11:18:01;100830.69;;;2.16;77.35
9009;BME280;62813;51.424;6.762;2022-12-11T11:20:34;100830.69;;;2.16;77.17
9009;BME280;62813;51.424;6.762;2022-12-11T11:23:07;100831.56;;;2.18;77.15
9009;BME280;62813;51.424;6.762;2022-12-11T11:25:36;100834.13;;;2.09;76.85
9009;BME280;62813;51.424;6.762;2022-12-11T11:28:05;100825.59;;;2.13;77.15
9009;BME280;62813;51.424;6.762;2022-12-11T11:30:38;100823.03;;;2.15;77.39
9009;BME280;62813;51.424;6.762;2022-12-11T11:33:19;100825.59;;;2.13;76.48
9009;BME280;62813;51.424;6.762;2022-12-11T11:35:56;100825.59;;;2.12;76.74
9009;BME280;62813;51.424;6.762;2022-12-11T11:41:12;100825.59;;;2.10;77.45
9009;BME280;62813;51.424;6.762;2022-12-11T11:46:14;100823.03;;;2.10;76.60
9009;BME280;62813;51.424;6.762;2022-12-11T11:48:49;100820.47;;;2.13;76.85
9009;BME280;62813;51.424;6.762;2022-12-11T11:51:30;100823.91;;;2.12;76.59
9009;BME280;62813;51.424;6.762;2022-12-11T11:54:00;100816.19;;;2.11;76.25
9009;BME280;62813;51.424;6.762;2022-12-11T11:56:32;100817.94;;;2.12;76.52
9009;BME280;62813;51.424;6.762;2022-12-11T11:59:20;100817.91;;;2.15;76.55
9009;BME280;62813;51.424;6.762;2022-12-11T12:01:50;100808.50;;;2.18;76.50
9009;BME280;62813;51.424;6.762;2022-12-11T12:04:17;100812.72;;;2.24;76.94
9009;BME280;62813;51.424;6.762;2022-12-11T12:07:03;100808.44;;;2.24;75.85
9009;BME280;62813;51.424;6.762;2022-12-11T12:09:45;100801.59;;;2.28;75.92
9009;BME280;62813;51.424;6.762;2022-12-11T12:15:14;100807.63;;;2.19;75.81
9009;BME280;62813;51.424;6.762;2022-12-11T12:20:40;100805.13;;;2.12;75.85
9009;BME280;62813;51.424;6.762;2022-12-11T12:26:13;100805.09;;;2.13;75.78
9009;BME280;62813;51.424;6.762;2022-12-11T12:28:50;100804.19;;;2.22;75.96
9009;BME280;62813;51.424;6.762;2022-12-11T12:37:16;100790.59;;;2.18;75.31
9009;BME280;62813;51.424;6.762;2022-12-11T12:39:55;100791.38;;;2.23;75.56
9009;BME280;62813;51.424;6.762;2022-12-11T12:42:34;100780.25;;;2.29;75.49
9009;BME280;62813;51.424;6.762;2022-12-11T12:47:43;100783.66;;;2.31;75.81
9009;BME280;62813;51.424;6.762;2022-12-11T12:50:24;100783.66;;;2.29;75.72
9009;BME280;62813;51.424;6.762;2022-12-11T12:52:52;100785.38;;;2.27;75.84
9009;BME280;62813;51.424;6.762;2022-12-11T12:55:25;100781.97;;;2.28;75.72
9009;BME280;62813;51.424;6.762;2022-12-11T12:57:59;100777.72;;;2.24;75.24
9009;BME280;62813;51.424;6.762;2022-12-11T13:00:38;100770.94;;;2.17;75.70
9009;BME280;62813;51.424;6.762;2022-12-11T13:03:23;100776.13;;;2.08;75.41
9009;BME280;62813;51.424;6.762;2022-12-11T13:06:01;100776.97;;;2.08;74.39
9009;BME280;62813;51.424;6.762;2022-12-11T13:08:49;100777.03;;;1.98;75.21
9009;BME280;62813;51.424;6.762;2022-12-11T13:11:19;100785.53;;;2.06;75.17
9009;BME280;62813;51.424;6.762;2022-12-11T13:14:02;100778.69;;;2.06;75.64
9009;BME280;62813;51.424;6.762;2022-12-11T13:16:38;100783.78;;;2.10;75.36
9009;BME280;62813;51.424;6.762;2022-12-11T13:21:55;100779.50;;;2.15;75.69
9009;BME280;62813;51.424;6.762;2022-12-11T13:26:48;100779.47;;;2.16;75.73
9009;BME280;62813;51.424;6.762;2022-12-11T13:29:37;100788.91;;;2.13;75.94
9009;BME280;62813;51.424;6.762;2022-12-11T13:34:36;100782.06;;;2.13;75.65
9009;BME280;62813;51.424;6.762;2022-12-11T13:37:05;100783.72;;;2.17;75.69
9009;BME280;62813;51.424;6.762;2022-12-11T13:39:38;100784.56;;;2.22;75.59
9009;BME280;62813;51.424;6.762;2022-12-11T13:42:07;100778.59;;;2.22;75.07
9009;BME280;62813;51.424;6.762;2022-12-11T13:44:47;100777.78;;;2.15;75.23
9009;BME280;62813;51.424;6.762;2022-12-11T13:47:16;100776.94;;;2.15;75.28
9009;BME280;62813;51.424;6.762;2022-12-11T13:49:48;100786.31;;;2.14;75.09
9009;BME280;62813;51.424;6.762;2022-12-11T13:52:17;100782.06;;;2.13;75.11
9009;BME280;62813;51.424;6.762;2022-12-11T13:54:49;100784.63;;;2.13;75.54
9009;BME280;62813;51.424;6.762;2022-12-11T13:57:19;100788.06;;;2.12;75.52
9009;BME280;62813;51.424;6.762;2022-12-11T13:59:49;100785.50;;;2.12;75.49
9009;BME280;62813;51.424;6.762;2022-12-11T14:02:33;100790.59;;;2.11;75.11
9009;BME280;62813;51.424;6.762;2022-12-11T14:05:04;100788.94;;;2.06;75.13
9009;BME280;62813;51.424;6.762;2022-12-11T14:07:34;100783.78;;;2.10;75.05
9009;BME280;62813;51.424;6.762;2022-12-11T14:10:07;100788.06;;;2.09;74.77
9009;BME280;62813;51.424;6.762;2022-12-11T14:12:42;100782.94;;;2.09;74.95
9009;BME280;62813;51.424;6.762;2022-12-11T14:15:12;100787.22;;;2.07;74.92
9009;BME280;62813;51.424;6.762;2022-12-11T14:17:41;100786.38;;;2.05;75.20
9009;BME280;62813;51.424;6.762;2022-12-11T14:20:18;100794.94;;;2.01;74.82
9009;BME280;62813;51.424;6.762;2022-12-11T14:22:45;100803.47;;;1.97;75.15
9009;BME280;62813;51.424;6.762;2022-12-11T14:25:20;100800.94;;;1.98;75.05
9009;BME280;62813;51.424;6.762;2022-12-11T14:27:49;100801.78;;;1.96;74.96
9009;BME280;62813;51.424;6.762;2022-12-11T14:30:20;100801.78;;;1.96;75.31
9009;BME280;62813;51.424;6.762;2022-12-11T14:32:47;100792.41;;;1.93;74.24
9009;BME280;62813;51.424;6.762;2022-12-11T14:35:38;100806.13;;;1.83;73.99
9009;BME280;62813;51.424;6.762;2022-12-11T14:38:12;100800.19;;;1.76;75.52
9009;BME280;62813;51.424;6.762;2022-12-11T14:40:44;100804.44;;;1.77;75.08
9009;BME280;62813;51.424;6.762;2022-12-11T14:43:24;100812.06;;;1.87;76.25